ADDS TAF Board (Experimental) INFO Settings
IDs: Format: Expanded Condensed

KPDX - Portland Intl Arpt, OR, US

Issued at 0540 UTC 10 Feb 2016
Updated at: 0641 UTC 10 Feb 2016
Time0553Z 10/07Z 10/08Z 10/09Z 10/10Z 10/11Z 10/12Z 10/13Z 10/14Z 10/15Z 10/16Z 10/17Z 10/18Z 10/19Z
Type OBS PRVL PRVL PRVL PRVL PRVL PRVL PRVL PRVL PRVL PRVL PRVL PRVL PRVL
VIS 10 >6 >6 >6 >6 >6 >6 >6 >6 >6 >6 >6 >6 >6
CIG -- 250 250 250 250 250 250 250 250 250 100 100 100 100
Cover FEW BKN BKN BKN BKN BKN BKN BKN BKN BKN OVC OVC OVC OVC
FltCat VFR VFR VFR VFR VFR VFR VFR VFR VFR VFR VFR VFR VFR VFR
WX -- -- -- -- -- -- -- -- -- -- -- -- -- --
WDir VRB 120 120 120 120 120 120 120 120 120 140 140 140 140
WSpd 0 7 7 7 7 7 7 7 7 7 7 7 7 7
WGst -- -- -- -- -- -- -- -- -- -- -- -- -- --
R03/21
XWnd VRB -7 -7 -7 -7 -7 -7 -7 -7 -7 -7 -7 -7 -7
HWnd VRB 2 2 2 2 2 2 2 2 2 -1 -1 -1 -1
R10/28
XWnd VRB -0 -0 -0 -0 -0 -0 -0 -0 -0 -3 -3 -3 -3
HWnd VRB 7 7 7 7 7 7 7 7 7 7 7 7 7

NOTE: TEMPO conditions in [brackets]. Keep in mind TEMPO conditions might be better (lower impact) than prevailing conditions.

Raw TAF
KPDX 100540Z 1006/1106 12007KT P6SM BKN250
  FM101600 14007KT P6SM OVC100
  FM110000 13004KT P6SM OVC050


Raw METAR
KPDX 100553Z 00000KT 10SM FEW250 10/04 A3015 RMK AO2 SLP208 T01000039 10139 20094 56007
KPDX 100453Z 09008KT 10SM BKN220 10/04 A3015 RMK AO2 SLP208 T01000039
KPDX 100353Z 12011KT 10SM BKN220 11/04 A3015 RMK AO2 SLP210 T01110039

METAR Board
Radar Display
Forecast Discussion

TAF Board Legend

Potential Impact
Threat None Slight Moderate High
Visibility (sm) ≥5.1 5.1>X≥3 3>X≥1 <1
Ceiling (100 ft) ≥30.1 30.1>X≥10 10>X≥5 <5
Wind Speed (kt) <10 10≤X<20 20≤X<30 ≥30
Wind Gust (kt) <15 15≤X<25 25≤X<35 ≥35
Weather No Wx Reported VCTS,-TS,-FZRA,SN TS,FZRA +TS,+FZRA,+SN